Skip to main content

NOAA/GLERL Met Station at Muskegon, MI

Previous 5 days (top of hour only)
See also Previous 3 Hours (2 minute increments)
Jump down to Data
Switch to [English][Metric]
Zoom: Click and drag, Pan: shift-click and drag, Unzoom: double-click, Unzoom All






Note: Speed = mean wind during 2-minute period at top of hour,
Gust = max wind during 2-minute period at top of hour,
Peak = max wind during entire hour.
• See also 5-day windrose plot


NOAA/GLERL Met Station at Muskegon, MI

Previous 5 days (top of hour only)
See also Previous 3 Hours (2 minute increments)
Jump up to Graphs
Switch to [English][Metric]
                  Wind  Wind  Wind   Air   Dew   Rel     Sta   PAR
                   Spd   Gst   Dir  Temp    Pt   Hum    Pres uE/m2/
YYYY-MM-DD   EST   kts   kts   deg     F     F     %   in Hg   sec
2019-12-07 00:00 -99.0 -99.0   -99   0.0   0.0   0.0    0.00     0
2019-12-06 01:00  16.1  17.9   259  41.9  37.9  85.4   29.27     2
2019-12-06 00:00  14.6  15.9   231  41.9  37.4  83.9   29.28     2
2019-12-05 23:00  13.8  15.2   216  40.8  36.4  84.2   29.29     2
2019-12-05 22:00  10.5  11.5   184  38.8  32.8  78.6   29.30     2
2019-12-05 21:00  11.3  12.8   184  39.2  31.2  72.8   29.32     2
2019-12-05 20:00   7.8  10.7   163  40.1  32.3  73.3   29.33     2
2019-12-05 19:00  14.0  14.8   210  40.3  33.0  74.9   29.34     2
2019-12-05 18:00  13.2  14.2   225  39.4  32.1  74.9   29.34     2
2019-12-05 17:00  14.0  15.2   221  38.8  32.3  77.1   29.35    28
2019-12-05 16:00  12.4  13.6   227  38.8  30.7  72.4   29.34   280
2019-12-05 15:00   9.3  10.3   226  38.5  29.5  69.9   29.35   507
2019-12-05 14:00   8.2   9.1   237  37.9  29.1  70.1   29.35   605
2019-12-05 13:00   5.8   6.8   234  37.4  28.0  68.6   29.38   469
2019-12-05 12:00   6.6   7.2   289  37.2  28.2  69.7   29.40   230
2019-12-05 11:00   7.6   8.6   313  37.4  28.9  71.0   29.40   270
2019-12-05 10:00   9.5  10.5   324  37.4  28.8  70.7   29.38   362
2019-12-05 09:00  12.8  14.0   320  37.0  27.8  69.0   29.37   137
2019-12-05 08:00  15.2  15.9   336  36.9  27.5  68.6   29.36     9
2019-12-05 07:00  16.7  17.9   327  36.9  27.9  69.8   29.34     2
2019-12-05 06:00  18.3  19.8   328  36.9  27.3  67.9   29.30     2
2019-12-05 05:00  13.4  15.9   353  37.0  26.0  64.1   29.27     2
2019-12-05 04:00  14.4  16.9   345  37.2  26.7  65.5   29.27     2
2019-12-05 03:00  22.6  24.7   343  37.6  26.8  64.7   29.25     2
2019-12-05 02:00  24.3  25.9   344  37.9  25.8  61.3   29.22     2
2019-12-05 01:00  27.0  29.7   329  38.1  28.5  67.9   29.22     2
2019-12-05 00:00  21.8  25.1   333  37.9  28.8  69.4   29.20     2
2019-12-04 23:00  24.5  28.4   342  37.8  26.4  63.3   29.18     2
2019-12-04 22:00  27.8  34.8   349  37.8  26.1  62.4   29.16     2
2019-12-04 21:00  24.3  27.8   336  37.2  27.8  68.4   29.14     2
2019-12-04 20:00  26.2  30.3   344  36.5  26.9  67.9   29.13     2
2019-12-04 19:00  26.6  29.5   336  36.0  26.5  68.3   29.11     2
2019-12-04 18:00  24.9  29.7   337  36.0  27.8  71.9   29.09     2
2019-12-04 17:00  26.4  28.2   323  35.4  27.7  73.1   29.07     7
2019-12-04 16:00  27.0  31.1   321  35.1  28.6  76.9   29.03    73
2019-12-04 15:00  23.9  27.2   331  34.7  28.4  77.6   29.00   112
2019-12-04 14:00  24.1  26.0   332  34.9  28.3  76.7   28.97    80
2019-12-04 13:00  21.8  25.9   333  34.5  28.8  79.5   28.96    69
2019-12-04 12:00  22.9  26.0   325  34.3  28.9  80.3   28.95    73
2019-12-04 11:00  23.5  26.4   333  34.2  28.3  78.8   28.95    77
2019-12-04 10:00  24.3  26.4   332  35.1  29.0  78.4   28.93    58
2019-12-04 09:00  21.0  23.9   317  35.6  29.2  77.4   28.92    26
2019-12-04 08:00  19.2  20.6   326  36.0  29.5  77.1   28.91     4
2019-12-04 07:00  19.6  22.4   322  36.7  30.3  77.4   28.90     2
2019-12-04 06:00  18.9  21.4   325  36.7  30.0  76.4   28.89     2
2019-12-04 05:00  17.7  18.9   314  36.9  29.9  75.7   28.89     2
2019-12-04 04:00  19.4  21.2   320  37.2  30.2  75.5   28.88     2
2019-12-04 03:00  18.9  21.0   322  37.4  30.1  74.5   28.88     2
2019-12-04 02:00  20.6  22.2   321  38.1  30.1  72.5   28.88     2
2019-12-04 01:00  18.5  19.4   325  38.8  30.8  72.5   28.89     2
2019-12-04 00:00  16.9  19.2   317  38.8  30.5  71.6   28.90     2
2019-12-03 23:00  18.7  20.0   318  39.2  31.1  72.5   28.92     2
2019-12-03 22:00  21.4  22.9   310  39.7  31.0  70.6   28.92     2
2019-12-03 21:00  18.7  22.0   297  39.9  32.4  74.2   28.93     2
2019-12-03 20:00  16.3  18.3   291  39.7  32.9  76.3   28.95     2
2019-12-03 19:00  19.8  22.7   291  39.2  32.2  75.7   28.95     2
2019-12-03 18:00  18.5  22.0   279  38.1  31.9  78.1   28.96     2
2019-12-03 17:00  18.5  20.0   268  37.2  31.6  79.8   28.96    18
2019-12-03 16:00  18.7  22.0   266  36.7  31.2  80.3   28.96    84
2019-12-03 15:00  19.8  21.6   250  36.3  30.7  79.7   28.97   174
2019-12-03 14:00  21.4  25.7   252  36.0  29.3  76.5   28.99   211
2019-12-03 13:00  23.1  24.5   251  36.1  30.1  78.6   29.02   150
2019-12-03 12:00  21.6  24.3   237  36.5  30.9  80.0   29.06   160
2019-12-03 11:00  22.0  24.7   237  36.5  29.7  76.0   29.10   954
2019-12-03 10:00  20.8  23.1   228  36.3  30.7  79.7   29.12   241
2019-12-03 09:00  20.6  22.4   228  36.0  30.4  79.9   29.13    79
2019-12-03 08:00  17.9  21.2   219  35.4  31.3  84.9   29.16     3
2019-12-03 07:00  15.7  16.9   226  34.9  30.8  84.7   29.18     2
2019-12-03 06:00  15.2  16.9   266  34.7  30.3  83.6   29.22     2
2019-12-03 05:00  16.5  17.9   262  35.1  29.2  79.1   29.24     2
2019-12-03 04:00  14.0  16.1   241  34.5  28.6  78.7   29.27     2
2019-12-03 03:00  13.2  16.7   258  34.3  29.2  81.2   29.30     2
2019-12-03 02:00   9.1  12.2   263  34.5  28.8  79.5   29.29     2
2019-12-03 01:00  10.7  12.6   254  34.9  28.5  77.2   29.32     2
2019-12-03 00:00   4.1   5.2   160  30.4  27.9  90.3   29.33     2
2019-12-02 23:00   3.5   4.3   149  29.3  26.7  89.8   29.35     2
2019-12-02 22:00   3.9   5.1   159  29.1  26.4  89.5   29.37     2
2019-12-02 21:00   3.5   4.3   134  29.5  26.5  88.5   29.37     2
2019-12-02 20:00   5.1   6.4   118  30.2  26.8  87.1   29.38     2
2019-12-02 19:00   5.1   6.6   103  30.2  26.8  86.9   29.39     2
2019-12-02 18:00   6.0   7.8    99  30.0  26.6  87.0   29.39     2
2019-12-02 16:00   2.1   3.5    26  30.9  27.1  85.6   29.37   119
2019-12-02 15:00   1.4   2.3    18  30.7  26.4  83.7   29.35   212
2019-12-02 14:00   5.8   7.4    85  30.6  25.2  80.3   29.32   780
2019-12-02 13:00   5.6   7.6    74  30.0  25.5  82.9   29.34   449
2019-12-02 12:00   5.2   8.0    80  29.7  25.5  84.4   29.35   353
2019-12-02 11:00   8.4  12.2    56  28.9  24.8  84.4   29.35   381
2019-12-02 10:00  10.9  13.4    42  28.6  24.8  85.4   29.35   301
2019-12-02 09:00   8.2  10.1    45  28.6  24.9  85.9   29.32   251
2019-12-02 08:00  10.5  13.4    41  29.3  25.5  85.6   29.30    11
2019-12-02 07:00   7.2  10.3    33  29.3  26.0  87.5   29.28     2
2019-12-02 06:00   8.0  11.1    32  29.5  26.3  87.6   29.24     2
2019-12-02 05:00   8.0  10.5    41  29.8  26.5  87.1   29.21     2
2019-12-02 04:00   8.9  10.1    39  30.4  27.4  88.5   29.19     2
2019-12-02 03:00   9.7  13.8    40  30.7  27.8  88.8   29.16     2
2019-12-02 02:00   7.6   9.5    39  31.3  28.4  89.1   29.13     2
2019-12-02 01:00   8.9  12.1    29  32.0  29.5  90.3   29.11     2
2019-12-02 00:00   9.1  11.7    54  32.2  29.3  88.8   29.07     2
2019-12-01 23:00   9.3  10.9    33  32.2  29.7  90.4   29.05     2
2019-12-01 22:00   9.5  12.1    37  32.5  29.9  89.9   29.02     2
2019-12-01 21:00  10.3  13.6    44  32.5  30.1  90.7   28.99     2
2019-12-01 20:00  10.3  13.2    41  32.9  31.1  92.9   28.95     2
2019-12-01 19:00   9.3  13.4    44  32.7  31.3  94.5   28.92     2